createdAt,value
2019-01-23T00:01:29.854Z,66.53
2019-01-23T00:04:35.560Z,52.93
2019-01-23T00:07:41.259Z,54.13
2019-01-23T00:10:46.987Z,59.20
2019-01-23T00:13:52.907Z,53.77
2019-01-23T00:16:58.829Z,56.00
2019-01-23T00:20:05.034Z,53.33
2019-01-23T00:23:10.722Z,57.37
2019-01-23T00:26:16.427Z,58.30
2019-01-23T00:29:22.230Z,54.77
2019-01-23T00:32:28.299Z,59.53
2019-01-23T00:35:34.011Z,54.47
2019-01-23T00:38:39.730Z,58.90
2019-01-23T00:41:45.554Z,56.20
2019-01-23T00:44:51.266Z,61.13
2019-01-23T00:47:56.971Z,56.13
2019-01-23T00:51:02.678Z,57.97
2019-01-23T00:54:08.603Z,57.97
2019-01-23T00:57:14.301Z,57.90
2019-01-23T01:00:22.677Z,60.47
2019-01-23T01:03:28.377Z,63.30
2019-01-23T01:06:34.235Z,58.70
2019-01-23T01:09:39.950Z,64.33
2019-01-23T01:12:45.766Z,60.63
2019-01-23T01:15:52.585Z,56.20
2019-01-23T01:18:58.413Z,56.87
2019-01-23T01:22:04.444Z,64.47
2019-01-23T01:25:12.511Z,63.73
2019-01-23T01:28:18.316Z,67.27
2019-01-23T01:31:24.127Z,73.70
2019-01-23T01:34:29.934Z,67.17
2019-01-23T01:37:35.664Z,68.23
2019-01-23T01:40:41.484Z,67.47
2019-01-23T01:43:47.214Z,71.47
2019-01-23T01:46:53.008Z,69.97
2019-01-23T01:49:58.893Z,67.80
2019-01-23T01:53:04.729Z,70.10
2019-01-23T01:56:10.506Z,64.60
2019-01-23T01:59:16.252Z,74.37
2019-01-23T02:02:22.085Z,70.43
2019-01-23T02:05:27.930Z,67.03
2019-01-23T02:08:33.631Z,71.30
2019-01-23T02:11:39.337Z,70.60
2019-01-23T02:14:45.062Z,68.17
2019-01-23T02:17:51.083Z,64.90
2019-01-23T02:20:57.237Z,65.00
2019-01-23T02:24:02.921Z,63.73
2019-01-23T02:27:08.649Z,67.00
2019-01-23T02:30:15.858Z,66.43
2019-01-23T02:33:21.681Z,67.57
2019-01-23T02:36:27.432Z,71.60
2019-01-23T02:39:33.136Z,71.67
2019-01-23T02:42:38.867Z,69.03
2019-01-23T02:45:44.568Z,73.17
2019-01-23T02:48:51.385Z,77.30
2019-01-23T02:51:57.081Z,77.67
2019-01-23T02:55:02.893Z,87.67
2019-01-23T02:58:08.700Z,87.73
2019-01-23T03:01:14.401Z,93.03
2019-01-23T03:04:20.108Z,77.07
2019-01-23T03:07:27.273Z,85.57
2019-01-23T03:10:33.124Z,87.03
2019-01-23T03:13:38.812Z,84.83
2019-01-23T03:16:44.629Z,84.57
2019-01-23T03:19:50.385Z,79.13
2019-01-23T03:22:56.089Z,66.80
2019-01-23T03:26:01.796Z,80.20
2019-01-23T03:29:07.584Z,68.30
2019-01-23T03:32:13.399Z,69.20
2019-01-23T03:35:19.491Z,72.40
2019-01-23T03:38:25.236Z,63.20
2019-01-23T03:41:30.973Z,62.07
2019-01-23T03:44:36.686Z,60.97
2019-01-23T03:47:42.724Z,61.00
2019-01-23T03:50:48.558Z,61.63
2019-01-23T03:53:54.296Z,71.83
2019-01-23T03:57:00.115Z,70.03
2019-01-23T04:00:07.805Z,67.07
2019-01-23T04:03:13.612Z,70.60
2019-01-23T04:06:19.345Z,69.17
2019-01-23T04:09:26.042Z,67.07
2019-01-23T04:12:31.766Z,68.43
2019-01-23T04:15:37.653Z,62.80
2019-01-23T04:18:43.487Z,67.77
2019-01-23T04:21:49.187Z,66.60
2019-01-23T04:24:54.894Z,66.07
2019-01-23T04:28:00.609Z,63.30
2019-01-23T04:31:06.448Z,64.83
2019-01-23T04:34:12.162Z,69.30
2019-01-23T04:37:17.900Z,77.87
2019-01-23T04:40:23.578Z,71.57
2019-01-23T04:43:29.287Z,78.40
2019-01-23T04:46:34.979Z,75.67
2019-01-23T04:49:40.702Z,76.13
2019-01-23T04:53:07.299Z,88.23
2019-01-23T04:56:14.088Z,81.70
2019-01-23T04:59:19.814Z,84.77
2019-01-23T05:02:25.542Z,82.23
2019-01-23T05:05:31.347Z,85.33
2019-01-23T05:08:37.070Z,83.87
2019-01-23T05:11:42.798Z,78.17
2019-01-23T05:14:48.534Z,81.47
2019-01-23T05:17:54.234Z,79.70
2019-01-23T05:20:59.939Z,78.50
2019-01-23T05:24:05.745Z,81.50
2019-01-23T05:27:11.468Z,76.67
2019-01-23T05:30:22.714Z,77.10
2019-01-23T05:33:28.427Z,73.50
2019-01-23T05:36:34.128Z,73.03
2019-01-23T05:39:39.857Z,61.00
2019-01-23T05:42:45.667Z,68.23
2019-01-23T05:45:51.521Z,68.10
2019-01-23T05:48:57.254Z,65.60
2019-01-23T05:52:03.003Z,67.40
2019-01-23T05:55:10.119Z,67.37
2019-01-23T05:58:15.828Z,66.43
2019-01-23T06:01:21.605Z,69.83
2019-01-23T06:04:27.411Z,67.83
2019-01-23T06:07:33.148Z,68.17
2019-01-23T06:10:38.990Z,77.50
2019-01-23T06:13:44.722Z,76.70
2019-01-23T06:16:50.459Z,83.00
2019-01-23T06:19:56.288Z,77.10
2019-01-23T06:23:02.175Z,75.17
2019-01-23T06:26:07.960Z,70.50
2019-01-23T06:29:13.695Z,72.50
2019-01-23T06:32:19.411Z,70.00
2019-01-23T06:35:25.228Z,72.47
2019-01-23T06:38:30.923Z,78.43
2019-01-23T06:41:36.640Z,76.70
2019-01-23T06:44:42.337Z,78.97
2019-01-23T06:47:49.910Z,78.07
2019-01-23T06:50:55.609Z,69.70
2019-01-23T06:54:01.301Z,70.73
2019-01-23T06:57:07.004Z,68.13
2019-01-23T07:00:17.950Z,70.57
2019-01-23T07:03:23.871Z,75.47
2019-01-23T07:06:29.591Z,67.00
2019-01-23T07:09:35.311Z,62.47
2019-01-23T07:12:41.273Z,61.60
2019-01-23T07:15:46.984Z,64.27
2019-01-23T07:18:53.287Z,60.60
2019-01-23T07:21:58.989Z,63.10
2019-01-23T07:25:05.548Z,62.07
2019-01-23T07:28:11.468Z,73.03
2019-01-23T07:31:17.276Z,57.77
2019-01-23T07:34:22.981Z,58.37
2019-01-23T07:37:28.698Z,62.03
2019-01-23T07:40:34.843Z,55.37
2019-01-23T07:43:40.559Z,62.70
2019-01-23T07:46:46.385Z,52.30
2019-01-23T07:49:52.081Z,53.63
2019-01-23T07:52:58.865Z,48.50
2019-01-23T07:56:04.675Z,62.23
2019-01-23T07:59:10.397Z,48.47
2019-01-23T08:02:16.115Z,53.27
2019-01-23T08:05:24.671Z,58.97
2019-01-23T08:08:30.393Z,55.93
2019-01-23T08:11:36.101Z,89.70
2019-01-23T08:14:42.261Z,52.13
2019-01-23T08:17:48.392Z,55.80
2019-01-23T08:20:54.215Z,45.93
2019-01-23T08:23:59.989Z,43.87
2019-01-23T08:27:07.104Z,42.93
2019-01-23T08:30:15.476Z,47.70
2019-01-23T08:33:21.285Z,46.40
2019-01-23T08:36:26.988Z,41.43
2019-01-23T08:39:32.692Z,45.30
2019-01-23T08:42:38.394Z,38.03
2019-01-23T08:45:44.105Z,43.73
2019-01-23T08:48:49.979Z,44.93
2019-01-23T08:51:55.684Z,42.10
2019-01-23T08:55:01.452Z,39.17
2019-01-23T08:58:08.061Z,33.33
2019-01-23T09:01:13.883Z,36.60
2019-01-23T09:04:19.713Z,41.33
2019-01-23T09:07:25.433Z,39.83
2019-01-23T09:10:31.382Z,41.43
2019-01-23T09:13:37.091Z,46.90
2019-01-23T09:16:44.031Z,42.10
2019-01-23T09:19:49.760Z,41.40
2019-01-23T09:22:55.567Z,44.33
2019-01-23T09:26:01.411Z,44.77
2019-01-23T09:29:07.575Z,45.50
2019-01-23T09:32:55.511Z,52.40
2019-01-23T09:36:41.065Z,49.67
2019-01-23T09:40:05.002Z,48.60
2019-01-23T09:43:50.629Z,50.23
2019-01-23T09:47:11.703Z,50.40
2019-01-23T09:50:35.522Z,52.97
2019-01-23T09:54:05.509Z,54.23
2019-01-23T09:57:11.260Z,53.60
2019-01-23T10:00:20.805Z,51.37
2019-01-23T10:03:26.634Z,57.87
2019-01-23T10:06:32.345Z,53.43
2019-01-23T10:09:39.220Z,59.33
2019-01-23T10:12:45.012Z,56.73
2019-01-23T10:15:53.985Z,56.10
2019-01-23T10:18:59.774Z,52.83
2019-01-23T10:22:05.782Z,55.93
2019-01-23T10:25:11.713Z,55.27
2019-01-23T10:28:17.414Z,58.13
2019-01-23T10:31:23.230Z,56.90
2019-01-23T10:34:28.957Z,61.23
2019-01-23T10:37:34.662Z,54.03
2019-01-23T10:40:40.374Z,58.43
2019-01-23T10:43:46.098Z,63.00
2019-01-23T10:46:51.924Z,58.50
2019-01-23T10:49:57.758Z,64.57
2019-01-23T10:53:03.556Z,65.63
2019-01-23T10:56:09.275Z,74.90
2019-01-23T10:59:14.962Z,65.63
2019-01-23T11:02:20.776Z,70.07
2019-01-23T11:05:27.819Z,68.50
2019-01-23T11:08:33.763Z,68.63
2019-01-23T11:11:39.482Z,68.77
2019-01-23T11:14:45.318Z,74.17
2019-01-23T11:17:51.254Z,91.80
2019-01-23T11:20:57.076Z,81.73
2019-01-23T11:24:03.000Z,80.53
2019-01-23T11:27:08.968Z,110.23
2019-01-23T11:30:18.160Z,75.87
2019-01-23T11:33:24.059Z,74.50
2019-01-23T11:36:30.853Z,74.43
2019-01-23T11:39:36.586Z,81.13
2019-01-23T11:42:42.306Z,64.37
2019-01-23T11:45:48.111Z,77.17
2019-01-23T11:48:53.816Z,59.70
2019-01-23T11:52:00.519Z,62.67
2019-01-23T11:55:07.416Z,54.30
2019-01-23T11:58:14.329Z,57.57
2019-01-23T12:01:20.259Z,55.47
2019-01-23T12:04:26.954Z,55.47
2019-01-23T12:07:32.719Z,55.37
2019-01-23T12:10:38.425Z,51.97
2019-01-23T12:13:44.225Z,54.10
2019-01-23T12:16:49.932Z,59.80
2019-01-23T12:19:55.663Z,63.20
2019-01-23T12:23:01.472Z,77.43
2019-01-23T12:26:07.300Z,56.20
2019-01-23T12:29:13.266Z,61.30
2019-01-23T12:32:18.958Z,74.73
2019-01-23T12:35:24.680Z,75.93
2019-01-23T12:38:30.402Z,70.23
2019-01-23T12:41:36.401Z,67.60
2019-01-23T12:44:42.330Z,75.80
2019-01-23T12:47:48.170Z,81.27
2019-01-23T12:50:53.893Z,73.17
2019-01-23T12:53:59.850Z,69.10
2019-01-23T12:57:05.664Z,73.03
2019-01-23T13:00:15.373Z,71.53
2019-01-23T13:03:21.199Z,73.40
2019-01-23T13:06:27.014Z,77.97
2019-01-23T13:09:32.726Z,71.33
2019-01-23T13:12:38.457Z,74.13
2019-01-23T13:15:44.172Z,69.43
2019-01-23T13:18:49.899Z,68.10
2019-01-23T13:21:55.605Z,73.60
2019-01-23T13:25:01.329Z,72.57
2019-01-23T13:28:07.679Z,74.10
2019-01-23T13:31:13.492Z,69.60
2019-01-23T13:34:19.319Z,71.63
2019-01-23T13:37:25.034Z,63.90
2019-01-23T13:40:33.788Z,67.90
2019-01-23T13:43:39.497Z,68.20
2019-01-23T13:46:45.307Z,70.87
2019-01-23T13:49:51.082Z,63.57
2019-01-23T13:52:56.907Z,74.83
2019-01-23T13:56:02.676Z,60.90
2019-01-23T13:59:08.536Z,60.83
2019-01-23T14:02:14.256Z,57.63
2019-01-23T14:05:20.188Z,71.80
2019-01-23T14:08:26.105Z,67.77
2019-01-23T14:11:31.832Z,73.47
2019-01-23T14:14:37.586Z,83.90
2019-01-23T14:17:43.412Z,69.20
2019-01-23T14:20:49.143Z,71.97
2019-01-23T14:23:54.977Z,70.07
2019-01-23T14:27:00.917Z,74.67
2019-01-23T14:30:10.022Z,65.47
2019-01-23T14:33:16.591Z,66.97
2019-01-23T14:36:22.343Z,73.50
2019-01-23T14:39:28.172Z,77.73
2019-01-23T14:42:34.156Z,71.73
2019-01-23T14:45:39.984Z,77.43
2019-01-23T14:48:45.720Z,86.47
2019-01-23T14:51:51.472Z,69.93
2019-01-23T14:54:57.204Z,68.43
2019-01-23T14:58:03.114Z,68.53
2019-01-23T15:01:08.913Z,65.73
2019-01-23T15:04:14.625Z,68.90
2019-01-23T15:07:20.376Z,76.27
2019-01-23T15:10:30.466Z,80.77
2019-01-23T15:13:36.184Z,74.20
2019-01-23T15:16:42.033Z,116.40
2019-01-23T15:19:47.836Z,88.70
2019-01-23T15:22:54.863Z,226.03
2019-01-23T15:26:00.588Z,114.10
2019-01-23T15:29:06.332Z,80.30
2019-01-23T15:32:17.247Z,146.43
2019-01-23T15:35:20.301Z,101.13
2019-01-23T15:38:26.026Z,125.77
2019-01-23T15:41:31.917Z,125.57
2019-01-23T15:44:37.668Z,84.17
2019-01-23T15:47:43.395Z,80.87
2019-01-23T15:50:49.123Z,80.00
2019-01-23T15:53:54.821Z,146.20
2019-01-23T15:57:00.542Z,122.87
2019-01-23T16:00:09.542Z,127.17
2019-01-23T16:03:15.346Z,89.47
2019-01-23T16:06:21.072Z,93.10
2019-01-23T16:09:26.968Z,98.77
2019-01-23T16:12:32.670Z,131.13
2019-01-23T16:15:38.601Z,127.37
2019-01-23T16:18:45.321Z,281.43
2019-01-23T16:21:51.388Z,173.87
2019-01-23T16:24:57.213Z,127.40
2019-01-23T16:28:03.078Z,101.57
2019-01-23T16:31:08.888Z,121.60
2019-01-23T16:34:14.706Z,190.20
2019-01-23T16:37:20.512Z,238.70
2019-01-23T16:40:26.320Z,177.03
2019-01-23T16:43:32.047Z,110.57
2019-01-23T16:46:37.776Z,101.73
2019-01-23T16:49:43.497Z,149.87
2019-01-23T16:52:49.423Z,110.23
2019-01-23T16:55:55.181Z,97.40
2019-01-23T16:59:00.906Z,110.33
2019-01-23T17:02:06.839Z,130.33
2019-01-23T17:05:16.431Z,96.33
2019-01-23T17:08:22.169Z,89.03
2019-01-23T17:11:28.988Z,88.17
2019-01-23T17:14:35.074Z,93.23
2019-01-23T17:17:40.906Z,100.77
2019-01-23T17:20:49.095Z,105.03
2019-01-23T17:23:54.911Z,106.30
2019-01-23T17:27:00.633Z,107.67
2019-01-23T17:30:08.400Z,98.77
2019-01-23T17:33:15.239Z,92.93
2019-01-23T17:36:20.939Z,92.00
2019-01-23T17:39:26.759Z,82.30
2019-01-23T17:42:32.693Z,88.83
2019-01-23T17:45:39.855Z,82.30
2019-01-23T17:48:45.669Z,89.27
2019-01-23T17:51:51.386Z,88.10
2019-01-23T17:54:57.085Z,85.13
2019-01-23T17:58:02.960Z,102.47
2019-01-23T18:01:09.069Z,104.80
2019-01-23T18:04:14.754Z,90.43
2019-01-23T18:07:20.585Z,371.53
2019-01-23T18:10:26.518Z,103.23
2019-01-23T18:13:32.263Z,95.27
2019-01-23T18:16:37.992Z,89.47
2019-01-23T18:19:43.703Z,95.00
2019-01-23T18:22:49.436Z,98.20
2019-01-23T18:25:55.146Z,89.80
2019-01-23T18:29:00.887Z,86.20
2019-01-23T18:32:09.217Z,89.77
2019-01-23T18:36:14.517Z,87.10
2019-01-23T18:39:46.605Z,92.00
2019-01-23T18:43:17.096Z,89.40
2019-01-23T18:47:15.405Z,105.53
2019-01-23T18:50:54.141Z,104.83
2019-01-23T18:53:59.960Z,88.50
2019-01-23T18:57:06.123Z,91.97
2019-01-23T19:00:16.045Z,96.27
2019-01-23T19:03:21.884Z,92.00
2019-01-23T19:06:27.739Z,94.33
2019-01-23T19:09:33.688Z,102.03
2019-01-23T19:12:39.530Z,100.83
2019-01-23T19:15:45.248Z,102.57
2019-01-23T19:18:50.977Z,121.50
2019-01-23T19:21:56.908Z,108.30
2019-01-23T19:25:02.634Z,105.27
2019-01-23T19:28:08.584Z,99.90
2019-01-23T19:31:14.336Z,101.10
2019-01-23T19:34:20.059Z,91.67
2019-01-23T19:37:25.877Z,128.00
2019-01-23T19:40:31.685Z,113.73
2019-01-23T19:43:37.624Z,108.43
2019-01-23T19:46:43.452Z,111.50
2019-01-23T19:49:49.487Z,135.70
2019-01-23T19:52:55.378Z,127.33
2019-01-23T19:56:01.244Z,123.63
2019-01-23T19:59:07.192Z,114.53
2019-01-23T20:02:13.189Z,121.50
2019-01-23T20:05:22.568Z,121.57
2019-01-23T20:08:28.390Z,119.27
2019-01-23T20:11:34.104Z,162.53
2019-01-23T20:14:39.959Z,145.60
2019-01-23T20:17:45.777Z,131.67
2019-01-23T20:20:52.574Z,122.47
2019-01-23T20:23:58.285Z,121.40
2019-01-23T20:27:04.425Z,128.93
2019-01-23T20:30:16.604Z,129.07
2019-01-23T20:33:27.899Z,123.97
2019-01-23T20:36:29.840Z,130.40
2019-01-23T20:39:35.578Z,139.97
2019-01-23T20:42:41.382Z,156.70
2019-01-23T20:45:47.113Z,143.43
2019-01-23T20:48:52.930Z,189.23
2019-01-23T20:51:58.664Z,149.03
2019-01-23T20:55:04.981Z,143.97
2019-01-23T20:58:10.826Z,118.07
2019-01-23T21:01:16.543Z,123.33
2019-01-23T21:04:22.358Z,116.30
2019-01-23T21:07:28.071Z,113.20
2019-01-23T21:10:34.001Z,105.93
2019-01-23T21:13:39.726Z,110.73
2019-01-23T21:16:45.445Z,132.27
2019-01-23T21:19:51.170Z,108.00
2019-01-23T21:22:57.068Z,102.40
2019-01-23T21:26:02.808Z,111.50
2019-01-23T21:29:08.526Z,111.73
2019-01-23T21:32:14.229Z,107.77
2019-01-23T21:35:20.431Z,115.13
2019-01-23T21:38:27.132Z,114.37
2019-01-23T21:41:32.839Z,127.30
2019-01-23T21:44:38.559Z,132.33
2019-01-23T21:47:44.669Z,125.30
2019-01-23T21:50:50.457Z,111.83
2019-01-23T21:53:56.188Z,131.23
2019-01-23T21:57:02.004Z,135.13
2019-01-23T22:00:12.450Z,140.63
2019-01-23T22:03:19.240Z,164.53
2019-01-23T22:06:25.065Z,141.20
2019-01-23T22:09:30.876Z,141.37
2019-01-23T22:12:36.707Z,133.33
2019-01-23T22:15:42.634Z,131.70
2019-01-23T22:18:48.374Z,127.83
2019-01-23T22:21:54.249Z,122.37
2019-01-23T22:24:59.982Z,110.80
2019-01-23T22:28:06.065Z,118.40
2019-01-23T22:31:11.982Z,123.77
2019-01-23T22:34:17.873Z,112.27
2019-01-23T22:37:23.624Z,124.70
2019-01-23T22:40:29.373Z,153.83
2019-01-23T22:43:35.111Z,198.60
2019-01-23T22:46:40.813Z,121.63
2019-01-23T22:49:46.537Z,113.60
2019-01-23T22:52:52.495Z,153.00
2019-01-23T22:55:58.318Z,136.27
2019-01-23T22:59:04.134Z,124.27
2019-01-23T23:02:09.998Z,113.13
2019-01-23T23:05:15.720Z,117.20
2019-01-23T23:08:21.436Z,118.17
2019-01-23T23:11:27.338Z,115.80
2019-01-23T23:14:33.162Z,108.77
2019-01-23T23:17:38.985Z,107.30
2019-01-23T23:20:44.675Z,97.90
2019-01-23T23:23:50.492Z,93.80
2019-01-23T23:26:56.315Z,91.70
2019-01-23T23:30:02.153Z,87.10
2019-01-23T23:33:07.966Z,87.23
2019-01-23T23:36:13.718Z,83.97
2019-01-23T23:39:19.509Z,78.77
2019-01-23T23:42:25.315Z,77.57
2019-01-23T23:45:31.043Z,79.50
2019-01-23T23:48:36.777Z,79.20
2019-01-23T23:51:42.473Z,72.63
2019-01-23T23:54:48.167Z,79.57
2019-01-23T23:57:53.980Z,82.97
